sensor_id;sensor_type;location;lat;lon;timestamp;temperature;humidity
22544;DHT22;11438;52.044;8.716;2022-12-29T00:02:08;13.50;99.00
22544;DHT22;11438;52.044;8.716;2022-12-29T00:04:34;13.50;99.00
22544;DHT22;11438;52.044;8.716;2022-12-29T00:06:59;13.50;99.00
22544;DHT22;11438;52.044;8.716;2022-12-29T00:09:25;13.50;99.00
22544;DHT22;11438;52.044;8.716;2022-12-29T00:11:51;13.50;99.00
22544;DHT22;11438;52.044;8.716;2022-12-29T00:14:16;13.60;99.10
22544;DHT22;11438;52.044;8.716;2022-12-29T00:17:00;13.60;99.10
22544;DHT22;11438;52.044;8.716;2022-12-29T00:19:26;13.60;99.20
22544;DHT22;11438;52.044;8.716;2022-12-29T00:22:11;13.60;99.20
22544;DHT22;11438;52.044;8.716;2022-12-29T00:24:56;13.60;99.20
22544;DHT22;11438;52.044;8.716;2022-12-29T00:27:40;13.60;99.20
22544;DHT22;11438;52.044;8.716;2022-12-29T00:30:24;13.60;99.20
22544;DHT22;11438;52.044;8.716;2022-12-29T00:33:14;13.60;99.20
22544;DHT22;11438;52.044;8.716;2022-12-29T00:36:03;13.60;99.20
22544;DHT22;11438;52.044;8.716;2022-12-29T00:38:31;13.60;99.20
22544;DHT22;11438;52.044;8.716;2022-12-29T00:41:16;13.60;99.20
22544;DHT22;11438;52.044;8.716;2022-12-29T00:44:00;13.70;99.20
22544;DHT22;11438;52.044;8.716;2022-12-29T00:46:35;13.70;99.20
22544;DHT22;11438;52.044;8.716;2022-12-29T00:49:01;13.70;99.30
22544;DHT22;11438;52.044;8.716;2022-12-29T00:51:46;13.70;99.30
22544;DHT22;11438;52.044;8.716;2022-12-29T00:54:12;13.70;99.20
22544;DHT22;11438;52.044;8.716;2022-12-29T00:56:38;13.70;99.30
22544;DHT22;11438;52.044;8.716;2022-12-29T00:59:06;13.70;99.30
22544;DHT22;11438;52.044;8.716;2022-12-29T01:01:33;13.70;99.30
22544;DHT22;11438;52.044;8.716;2022-12-29T01:03:58;13.80;99.30
22544;DHT22;11438;52.044;8.716;2022-12-29T01:06:24;13.70;99.20
22544;DHT22;11438;52.044;8.716;2022-12-29T01:08:51;13.80;99.30
22544;DHT22;11438;52.044;8.716;2022-12-29T01:11:39;13.80;99.20
22544;DHT22;11438;52.044;8.716;2022-12-29T01:14:05;13.80;99.20
22544;DHT22;11438;52.044;8.716;2022-12-29T01:16:31;13.80;99.50
22544;DHT22;11438;52.044;8.716;2022-12-29T01:18:57;13.80;99.20
22544;DHT22;11438;52.044;8.716;2022-12-29T01:21:22;13.80;99.20
22544;DHT22;11438;52.044;8.716;2022-12-29T01:23:48;13.80;99.10
22544;DHT22;11438;52.044;8.716;2022-12-29T01:26:15;13.80;99.10
22544;DHT22;11438;52.044;8.716;2022-12-29T01:28:41;13.80;99.10
22544;DHT22;11438;52.044;8.716;2022-12-29T01:31:08;13.80;99.10
22544;DHT22;11438;52.044;8.716;2022-12-29T01:33:34;13.80;99.10
22544;DHT22;11438;52.044;8.716;2022-12-29T01:36:00;13.80;99.20
22544;DHT22;11438;52.044;8.716;2022-12-29T01:38:26;13.80;99.20
22544;DHT22;11438;52.044;8.716;2022-12-29T01:40:51;13.80;99.30
22544;DHT22;11438;52.044;8.716;2022-12-29T01:43:17;13.80;99.40
22544;DHT22;11438;52.044;8.716;2022-12-29T01:45:45;13.80;99.40
22544;DHT22;11438;52.044;8.716;2022-12-29T01:48:13;13.80;99.50
22544;DHT22;11438;52.044;8.716;2022-12-29T01:50:46;13.80;99.60
22544;DHT22;11438;52.044;8.716;2022-12-29T01:53:21;13.80;99.70
22544;DHT22;11438;52.044;8.716;2022-12-29T01:55:57;13.80;99.80
22544;DHT22;11438;52.044;8.716;2022-12-29T01:58:28;13.80;99.70
22544;DHT22;11438;52.044;8.716;2022-12-29T02:00:54;13.90;99.70
22544;DHT22;11438;52.044;8.716;2022-12-29T02:03:21;13.90;99.70
22544;DHT22;11438;52.044;8.716;2022-12-29T02:05:54;13.90;99.70
22544;DHT22;11438;52.044;8.716;2022-12-29T02:08:24;13.90;99.70
22544;DHT22;11438;52.044;8.716;2022-12-29T02:10:51;13.90;99.60
22544;DHT22;11438;52.044;8.716;2022-12-29T02:13:17;14.00;99.70
22544;DHT22;11438;52.044;8.716;2022-12-29T02:16:24;13.90;99.80
22544;DHT22;11438;52.044;8.716;2022-12-29T02:19:13;13.90;99.90
22544;DHT22;11438;52.044;8.716;2022-12-29T02:22:02;14.00;99.90
22544;DHT22;11438;52.044;8.716;2022-12-29T02:24:54;14.00;99.90
22544;DHT22;11438;52.044;8.716;2022-12-29T02:33:34;14.00;99.90
22544;DHT22;11438;52.044;8.716;2022-12-29T02:36:13;14.00;99.90
22544;DHT22;11438;52.044;8.716;2022-12-29T02:38:51;14.00;99.90
22544;DHT22;11438;52.044;8.716;2022-12-29T02:45:14;13.90;99.90
22544;DHT22;11438;52.044;8.716;2022-12-29T02:47:44;13.90;99.90
22544;DHT22;11438;52.044;8.716;2022-12-29T02:50:33;13.90;99.90
22544;DHT22;11438;52.044;8.716;2022-12-29T02:53:09;13.90;99.90
22544;DHT22;11438;52.044;8.716;2022-12-29T02:55:35;13.90;99.90
22544;DHT22;11438;52.044;8.716;2022-12-29T03:00:46;13.90;99.90
22544;DHT22;11438;52.044;8.716;2022-12-29T03:06:29;13.90;99.90
22544;DHT22;11438;52.044;8.716;2022-12-29T03:09:18;14.00;99.90
22544;DHT22;11438;52.044;8.716;2022-12-29T03:11:58;14.00;99.90
22544;DHT22;11438;52.044;8.716;2022-12-29T03:14:44;14.00;99.90
22544;DHT22;11438;52.044;8.716;2022-12-29T03:20:10;14.10;99.90
22544;DHT22;11438;52.044;8.716;2022-12-29T03:22:42;14.10;99.90
22544;DHT22;11438;52.044;8.716;2022-12-29T03:25:39;14.10;99.90
22544;DHT22;11438;52.044;8.716;2022-12-29T03:28:17;14.10;99.90
22544;DHT22;11438;52.044;8.716;2022-12-29T03:30:44;14.20;99.80
22544;DHT22;11438;52.044;8.716;2022-12-29T03:33:15;14.20;99.80
22544;DHT22;11438;52.044;8.716;2022-12-29T03:35:44;14.20;99.70
22544;DHT22;11438;52.044;8.716;2022-12-29T03:38:18;14.20;99.60
22544;DHT22;11438;52.044;8.716;2022-12-29T03:40:50;14.20;99.60
22544;DHT22;11438;52.044;8.716;2022-12-29T03:43:17;14.30;99.50
22544;DHT22;11438;52.044;8.716;2022-12-29T03:45:43;14.30;99.50
22544;DHT22;11438;52.044;8.716;2022-12-29T03:48:09;14.30;99.40
22544;DHT22;11438;52.044;8.716;2022-12-29T03:50:34;14.30;99.40
22544;DHT22;11438;52.044;8.716;2022-12-29T03:53:00;14.30;99.20
22544;DHT22;11438;52.044;8.716;2022-12-29T03:55:25;14.30;99.20
22544;DHT22;11438;52.044;8.716;2022-12-29T03:57:51;14.30;99.10
22544;DHT22;11438;52.044;8.716;2022-12-29T04:00:16;14.40;99.00
22544;DHT22;11438;52.044;8.716;2022-12-29T04:02:42;14.30;99.00
22544;DHT22;11438;52.044;8.716;2022-12-29T04:05:07;14.40;98.90
22544;DHT22;11438;52.044;8.716;2022-12-29T04:07:33;14.40;98.90
22544;DHT22;11438;52.044;8.716;2022-12-29T04:09:59;14.40;98.90
22544;DHT22;11438;52.044;8.716;2022-12-29T04:12:24;14.40;98.90
22544;DHT22;11438;52.044;8.716;2022-12-29T04:14:50;14.40;98.80
22544;DHT22;11438;52.044;8.716;2022-12-29T04:17:15;14.40;98.70
22544;DHT22;11438;52.044;8.716;2022-12-29T04:19:41;14.40;98.70
22544;DHT22;11438;52.044;8.716;2022-12-29T04:22:06;14.40;98.70
22544;DHT22;11438;52.044;8.716;2022-12-29T04:24:32;14.40;98.50
22544;DHT22;11438;52.044;8.716;2022-12-29T04:26:57;14.50;98.60
22544;DHT22;11438;52.044;8.716;2022-12-29T04:29:23;14.40;98.50
22544;DHT22;11438;52.044;8.716;2022-12-29T04:31:48;14.50;98.50
22544;DHT22;11438;52.044;8.716;2022-12-29T04:34:14;14.50;98.50
22544;DHT22;11438;52.044;8.716;2022-12-29T04:36:39;14.50;98.60
22544;DHT22;11438;52.044;8.716;2022-12-29T04:39:05;14.50;98.70
22544;DHT22;11438;52.044;8.716;2022-12-29T04:41:31;14.50;98.60
22544;DHT22;11438;52.044;8.716;2022-12-29T04:43:56;14.50;98.60
22544;DHT22;11438;52.044;8.716;2022-12-29T04:46:22;14.60;98.50
22544;DHT22;11438;52.044;8.716;2022-12-29T04:48:48;14.50;98.50
22544;DHT22;11438;52.044;8.716;2022-12-29T04:51:13;14.60;98.40
22544;DHT22;11438;52.044;8.716;2022-12-29T04:53:39;14.50;98.40
22544;DHT22;11438;52.044;8.716;2022-12-29T04:56:04;14.60;98.40
22544;DHT22;11438;52.044;8.716;2022-12-29T04:58:30;14.50;98.50
22544;DHT22;11438;52.044;8.716;2022-12-29T05:00:56;14.50;98.60
22544;DHT22;11438;52.044;8.716;2022-12-29T05:03:21;14.60;98.70
22544;DHT22;11438;52.044;8.716;2022-12-29T05:05:47;14.50;98.70
22544;DHT22;11438;52.044;8.716;2022-12-29T05:08:12;14.60;98.70
22544;DHT22;11438;52.044;8.716;2022-12-29T05:10:38;14.60;98.70
22544;DHT22;11438;52.044;8.716;2022-12-29T05:13:03;14.50;98.70
22544;DHT22;11438;52.044;8.716;2022-12-29T05:15:29;14.50;98.70
22544;DHT22;11438;52.044;8.716;2022-12-29T05:17:54;14.50;98.70
22544;DHT22;11438;52.044;8.716;2022-12-29T05:20:20;14.50;98.80
22544;DHT22;11438;52.044;8.716;2022-12-29T05:22:45;14.50;98.80
22544;DHT22;11438;52.044;8.716;2022-12-29T05:25:11;14.50;98.80
22544;DHT22;11438;52.044;8.716;2022-12-29T05:27:36;14.50;98.80
22544;DHT22;11438;52.044;8.716;2022-12-29T05:30:02;14.50;98.80
22544;DHT22;11438;52.044;8.716;2022-12-29T05:32:28;14.40;98.80
22544;DHT22;11438;52.044;8.716;2022-12-29T05:34:53;14.50;99.00
22544;DHT22;11438;52.044;8.716;2022-12-29T05:37:19;14.50;99.00
22544;DHT22;11438;52.044;8.716;2022-12-29T05:39:44;14.40;99.00
22544;DHT22;11438;52.044;8.716;2022-12-29T05:42:10;14.40;99.00
22544;DHT22;11438;52.044;8.716;2022-12-29T05:44:35;14.50;99.00
22544;DHT22;11438;52.044;8.716;2022-12-29T05:47:01;14.50;98.90
22544;DHT22;11438;52.044;8.716;2022-12-29T05:49:26;14.50;98.90
22544;DHT22;11438;52.044;8.716;2022-12-29T05:51:52;14.40;98.90
22544;DHT22;11438;52.044;8.716;2022-12-29T05:54:17;14.40;98.90
22544;DHT22;11438;52.044;8.716;2022-12-29T05:56:43;14.40;98.80
22544;DHT22;11438;52.044;8.716;2022-12-29T05:59:08;14.50;98.90
22544;DHT22;11438;52.044;8.716;2022-12-29T06:01:34;14.50;98.90
22544;DHT22;11438;52.044;8.716;2022-12-29T06:04:00;14.50;98.80
22544;DHT22;11438;52.044;8.716;2022-12-29T06:06:25;14.50;98.80
22544;DHT22;11438;52.044;8.716;2022-12-29T06:08:51;14.50;98.80
22544;DHT22;11438;52.044;8.716;2022-12-29T06:11:16;14.50;98.70
22544;DHT22;11438;52.044;8.716;2022-12-29T06:13:42;14.50;98.70
22544;DHT22;11438;52.044;8.716;2022-12-29T06:16:08;14.50;98.70
22544;DHT22;11438;52.044;8.716;2022-12-29T06:18:33;14.50;98.70
22544;DHT22;11438;52.044;8.716;2022-12-29T06:21:00;14.50;98.60
22544;DHT22;11438;52.044;8.716;2022-12-29T06:23:26;14.60;98.60
22544;DHT22;11438;52.044;8.716;2022-12-29T06:25:52;14.60;98.60
22544;DHT22;11438;52.044;8.716;2022-12-29T06:28:17;14.60;98.50
22544;DHT22;11438;52.044;8.716;2022-12-29T06:30:44;14.60;98.50
22544;DHT22;11438;52.044;8.716;2022-12-29T06:33:10;14.60;98.50
22544;DHT22;11438;52.044;8.716;2022-12-29T06:35:36;14.60;98.40
22544;DHT22;11438;52.044;8.716;2022-12-29T06:38:02;14.60;98.30
22544;DHT22;11438;52.044;8.716;2022-12-29T06:40:27;14.60;98.10
22544;DHT22;11438;52.044;8.716;2022-12-29T06:42:53;14.70;98.10
22544;DHT22;11438;52.044;8.716;2022-12-29T06:45:18;14.70;98.30
22544;DHT22;11438;52.044;8.716;2022-12-29T06:47:44;14.70;99.00
22544;DHT22;11438;52.044;8.716;2022-12-29T06:50:09;14.60;99.20
22544;DHT22;11438;52.044;8.716;2022-12-29T06:52:34;14.60;99.00
22544;DHT22;11438;52.044;8.716;2022-12-29T06:55:00;14.60;98.80
22544;DHT22;11438;52.044;8.716;2022-12-29T06:57:26;14.50;98.80
22544;DHT22;11438;52.044;8.716;2022-12-29T06:59:52;14.40;98.80
22544;DHT22;11438;52.044;8.716;2022-12-29T07:02:17;14.40;98.80
22544;DHT22;11438;52.044;8.716;2022-12-29T07:04:46;14.20;98.80
22544;DHT22;11438;52.044;8.716;2022-12-29T07:07:11;14.20;98.90
22544;DHT22;11438;52.044;8.716;2022-12-29T07:09:37;14.10;99.10
22544;DHT22;11438;52.044;8.716;2022-12-29T07:12:02;14.00;99.10
22544;DHT22;11438;52.044;8.716;2022-12-29T07:14:28;13.90;99.20
22544;DHT22;11438;52.044;8.716;2022-12-29T07:16:53;13.90;99.30
22544;DHT22;11438;52.044;8.716;2022-12-29T07:19:19;13.80;99.40
22544;DHT22;11438;52.044;8.716;2022-12-29T07:21:45;13.80;99.40
22544;DHT22;11438;52.044;8.716;2022-12-29T07:24:11;13.80;99.50
22544;DHT22;11438;52.044;8.716;2022-12-29T07:26:36;13.70;99.50
22544;DHT22;11438;52.044;8.716;2022-12-29T07:29:05;13.80;99.60
22544;DHT22;11438;52.044;8.716;2022-12-29T07:31:30;13.70;99.70
22544;DHT22;11438;52.044;8.716;2022-12-29T07:33:56;13.70;99.60
22544;DHT22;11438;52.044;8.716;2022-12-29T07:36:21;13.70;99.70
22544;DHT22;11438;52.044;8.716;2022-12-29T07:38:47;13.70;99.90
22544;DHT22;11438;52.044;8.716;2022-12-29T07:41:12;13.80;99.90
22544;DHT22;11438;52.044;8.716;2022-12-29T07:43:38;13.70;99.90
22544;DHT22;11438;52.044;8.716;2022-12-29T07:46:03;13.70;99.90
22544;DHT22;11438;52.044;8.716;2022-12-29T07:48:29;13.70;99.90
22544;DHT22;11438;52.044;8.716;2022-12-29T07:50:54;13.70;99.90
22544;DHT22;11438;52.044;8.716;2022-12-29T07:53:20;13.70;99.90
22544;DHT22;11438;52.044;8.716;2022-12-29T07:55:46;13.70;99.90
22544;DHT22;11438;52.044;8.716;2022-12-29T07:58:11;13.70;99.80
22544;DHT22;11438;52.044;8.716;2022-12-29T08:00:37;13.70;99.80
22544;DHT22;11438;52.044;8.716;2022-12-29T08:03:04;13.70;99.80
22544;DHT22;11438;52.044;8.716;2022-12-29T08:05:31;13.70;99.80
22544;DHT22;11438;52.044;8.716;2022-12-29T08:07:57;13.60;99.70
22544;DHT22;11438;52.044;8.716;2022-12-29T08:10:23;13.70;99.80
22544;DHT22;11438;52.044;8.716;2022-12-29T08:12:49;13.70;99.80
22544;DHT22;11438;52.044;8.716;2022-12-29T08:15:14;13.60;99.70
22544;DHT22;11438;52.044;8.716;2022-12-29T08:17:40;13.60;99.70
22544;DHT22;11438;52.044;8.716;2022-12-29T08:20:06;13.60;99.60
22544;DHT22;11438;52.044;8.716;2022-12-29T08:22:32;13.60;99.50
22544;DHT22;11438;52.044;8.716;2022-12-29T08:24:57;13.60;99.50
22544;DHT22;11438;52.044;8.716;2022-12-29T08:27:23;13.60;99.40
22544;DHT22;11438;52.044;8.716;2022-12-29T08:29:49;13.60;99.50
22544;DHT22;11438;52.044;8.716;2022-12-29T08:32:14;13.60;99.70
22544;DHT22;11438;52.044;8.716;2022-12-29T08:34:40;13.60;99.60
22544;DHT22;11438;52.044;8.716;2022-12-29T08:37:06;13.60;99.60
22544;DHT22;11438;52.044;8.716;2022-12-29T08:39:31;13.60;99.60
22544;DHT22;11438;52.044;8.716;2022-12-29T08:41:57;13.70;99.70
22544;DHT22;11438;52.044;8.716;2022-12-29T08:44:22;13.60;99.70
22544;DHT22;11438;52.044;8.716;2022-12-29T08:46:48;13.70;99.70
22544;DHT22;11438;52.044;8.716;2022-12-29T08:49:13;13.70;99.70
22544;DHT22;11438;52.044;8.716;2022-12-29T08:51:39;13.80;99.70
22544;DHT22;11438;52.044;8.716;2022-12-29T08:54:04;13.80;99.70
22544;DHT22;11438;52.044;8.716;2022-12-29T08:56:30;13.80;99.70
22544;DHT22;11438;52.044;8.716;2022-12-29T08:58:55;13.90;99.70
22544;DHT22;11438;52.044;8.716;2022-12-29T09:01:21;13.80;99.80
22544;DHT22;11438;52.044;8.716;2022-12-29T09:03:47;13.90;99.80
22544;DHT22;11438;52.044;8.716;2022-12-29T09:06:13;13.90;99.90
22544;DHT22;11438;52.044;8.716;2022-12-29T09:08:40;13.90;99.90
22544;DHT22;11438;52.044;8.716;2022-12-29T09:11:18;13.90;99.90
22544;DHT22;11438;52.044;8.716;2022-12-29T09:13:45;13.90;99.90
22544;DHT22;11438;52.044;8.716;2022-12-29T09:16:10;13.90;99.80
22544;DHT22;11438;52.044;8.716;2022-12-29T09:18:36;13.90;99.80
22544;DHT22;11438;52.044;8.716;2022-12-29T09:21:04;13.80;99.80
22544;DHT22;11438;52.044;8.716;2022-12-29T09:23:31;13.80;99.80
22544;DHT22;11438;52.044;8.716;2022-12-29T09:25:56;13.80;99.80
22544;DHT22;11438;52.044;8.716;2022-12-29T09:28:23;13.80;99.90
22544;DHT22;11438;52.044;8.716;2022-12-29T09:30:49;13.80;99.90
22544;DHT22;11438;52.044;8.716;2022-12-29T09:33:16;13.80;99.90
22544;DHT22;11438;52.044;8.716;2022-12-29T09:35:48;13.80;99.90
22544;DHT22;11438;52.044;8.716;2022-12-29T09:38:15;13.80;99.90
22544;DHT22;11438;52.044;8.716;2022-12-29T09:40:41;13.80;99.90
22544;DHT22;11438;52.044;8.716;2022-12-29T09:43:43;13.80;99.90
22544;DHT22;11438;52.044;8.716;2022-12-29T09:46:35;13.80;99.90
22544;DHT22;11438;52.044;8.716;2022-12-29T09:51:46;13.80;99.90
22544;DHT22;11438;52.044;8.716;2022-12-29T09:54:23;13.90;99.70
22544;DHT22;11438;52.044;8.716;2022-12-29T09:56:49;13.90;99.40
22544;DHT22;11438;52.044;8.716;2022-12-29T09:59:20;13.90;99.10
22544;DHT22;11438;52.044;8.716;2022-12-29T10:01:57;13.90;99.00
22544;DHT22;11438;52.044;8.716;2022-12-29T10:04:28;13.90;98.90
22544;DHT22;11438;52.044;8.716;2022-12-29T10:12:50;14.00;98.30
22544;DHT22;11438;52.044;8.716;2022-12-29T10:15:33;13.90;98.30
22544;DHT22;11438;52.044;8.716;2022-12-29T10:18:13;13.90;98.20
22544;DHT22;11438;52.044;8.716;2022-12-29T10:23:40;13.90;98.20
22544;DHT22;11438;52.044;8.716;2022-12-29T10:26:16;13.90;98.40
22544;DHT22;11438;52.044;8.716;2022-12-29T10:31:21;13.90;98.70
22544;DHT22;11438;52.044;8.716;2022-12-29T10:33:54;13.90;98.50
22544;DHT22;11438;52.044;8.716;2022-12-29T10:36:32;14.00;98.30
22544;DHT22;11438;52.044;8.716;2022-12-29T10:39:37;14.00;98.30
22544;DHT22;11438;52.044;8.716;2022-12-29T10:42:20;14.00;98.20
22544;DHT22;11438;52.044;8.716;2022-12-29T10:44:47;14.00;98.20
22544;DHT22;11438;52.044;8.716;2022-12-29T10:47:19;14.00;97.90
22544;DHT22;11438;52.044;8.716;2022-12-29T10:49:48;14.00;98.00
22544;DHT22;11438;52.044;8.716;2022-12-29T10:52:15;14.00;97.80
22544;DHT22;11438;52.044;8.716;2022-12-29T10:54:50;14.00;97.90
22544;DHT22;11438;52.044;8.716;2022-12-29T10:57:26;14.10;98.00
22544;DHT22;11438;52.044;8.716;2022-12-29T10:59:53;14.10;97.90
22544;DHT22;11438;52.044;8.716;2022-12-29T11:02:39;14.20;97.90
22544;DHT22;11438;52.044;8.716;2022-12-29T11:07:50;14.30;97.10
22544;DHT22;11438;52.044;8.716;2022-12-29T11:10:40;14.30;96.80
22544;DHT22;11438;52.044;8.716;2022-12-29T11:13:16;14.40;96.70
22544;DHT22;11438;52.044;8.716;2022-12-29T11:15:44;14.40;95.50
22544;DHT22;11438;52.044;8.716;2022-12-29T11:20:53;14.40;95.20
22544;DHT22;11438;52.044;8.716;2022-12-29T11:23:38;14.40;95.30
22544;DHT22;11438;52.044;8.716;2022-12-29T11:26:13;14.50;94.80
22544;DHT22;11438;52.044;8.716;2022-12-29T11:28:41;14.50;95.20
22544;DHT22;11438;52.044;8.716;2022-12-29T11:31:08;14.50;95.10
22544;DHT22;11438;52.044;8.716;2022-12-29T11:33:36;14.50;95.40
22544;DHT22;11438;52.044;8.716;2022-12-29T11:36:11;14.50;95.30
22544;DHT22;11438;52.044;8.716;2022-12-29T11:38:40;14.50;95.00
22544;DHT22;11438;52.044;8.716;2022-12-29T11:41:11;14.50;94.50
22544;DHT22;11438;52.044;8.716;2022-12-29T11:43:38;14.50;95.00
22544;DHT22;11438;52.044;8.716;2022-12-29T11:46:06;14.50;95.10
22544;DHT22;11438;52.044;8.716;2022-12-29T11:48:38;14.50;95.30
22544;DHT22;11438;52.044;8.716;2022-12-29T11:51:06;14.50;95.30
22544;DHT22;11438;52.044;8.716;2022-12-29T11:53:42;14.50;95.20
22544;DHT22;11438;52.044;8.716;2022-12-29T11:56:15;14.50;95.10
22544;DHT22;11438;52.044;8.716;2022-12-29T11:58:42;14.50;94.90
22544;DHT22;11438;52.044;8.716;2022-12-29T12:01:21;14.50;94.90
22544;DHT22;11438;52.044;8.716;2022-12-29T12:04:18;14.50;94.90
22544;DHT22;11438;52.044;8.716;2022-12-29T12:06:59;14.50;94.90
22544;DHT22;11438;52.044;8.716;2022-12-29T12:09:29;14.50;95.10
22544;DHT22;11438;52.044;8.716;2022-12-29T12:11:57;14.50;94.70
22544;DHT22;11438;52.044;8.716;2022-12-29T12:14:42;14.50;94.40
22544;DHT22;11438;52.044;8.716;2022-12-29T12:17:19;14.50;94.70
22544;DHT22;11438;52.044;8.716;2022-12-29T12:22:34;14.50;94.80
22544;DHT22;11438;52.044;8.716;2022-12-29T12:25:11;14.50;94.30
22544;DHT22;11438;52.044;8.716;2022-12-29T12:27:54;14.50;94.10
22544;DHT22;11438;52.044;8.716;2022-12-29T12:30:24;14.50;94.30
22544;DHT22;11438;52.044;8.716;2022-12-29T12:33:03;14.50;94.40
22544;DHT22;11438;52.044;8.716;2022-12-29T12:38:30;14.60;94.40
22544;DHT22;11438;52.044;8.716;2022-12-29T12:43:58;14.60;94.10
22544;DHT22;11438;52.044;8.716;2022-12-29T12:49:49;14.60;93.90
22544;DHT22;11438;52.044;8.716;2022-12-29T12:52:48;14.60;93.80
22544;DHT22;11438;52.044;8.716;2022-12-29T12:55:44;14.60;93.70
22544;DHT22;11438;52.044;8.716;2022-12-29T12:59:03;14.60;93.70
22544;DHT22;11438;52.044;8.716;2022-12-29T13:01:46;14.60;93.20
22544;DHT22;11438;52.044;8.716;2022-12-29T13:04:32;14.60;93.60
22544;DHT22;11438;52.044;8.716;2022-12-29T13:07:21;14.50;93.40
22544;DHT22;11438;52.044;8.716;2022-12-29T13:12:57;14.50;93.30
22544;DHT22;11438;52.044;8.716;2022-12-29T13:18:33;14.50;93.30
22544;DHT22;11438;52.044;8.716;2022-12-29T13:21:11;14.50;93.60
22544;DHT22;11438;52.044;8.716;2022-12-29T13:23:49;14.50;93.00
22544;DHT22;11438;52.044;8.716;2022-12-29T13:26:33;14.50;92.90
22544;DHT22;11438;52.044;8.716;2022-12-29T13:29:20;14.50;93.00
22544;DHT22;11438;52.044;8.716;2022-12-29T13:38:17;14.50;93.10
22544;DHT22;11438;52.044;8.716;2022-12-29T13:40:52;14.50;93.10
22544;DHT22;11438;52.044;8.716;2022-12-29T13:43:20;14.50;93.00
22544;DHT22;11438;52.044;8.716;2022-12-29T13:45:54;14.50;93.20
22544;DHT22;11438;52.044;8.716;2022-12-29T13:48:24;14.50;93.30
22544;DHT22;11438;52.044;8.716;2022-12-29T13:50:57;14.50;92.90
22544;DHT22;11438;52.044;8.716;2022-12-29T13:53:34;14.50;92.80
22544;DHT22;11438;52.044;8.716;2022-12-29T14:01:58;14.40;93.30
22544;DHT22;11438;52.044;8.716;2022-12-29T14:04:27;14.40;93.40
22544;DHT22;11438;52.044;8.716;2022-12-29T14:07:00;14.40;93.40
22544;DHT22;11438;52.044;8.716;2022-12-29T14:09:46;14.30;93.30
22544;DHT22;11438;52.044;8.716;2022-12-29T14:14:52;14.30;93.20
22544;DHT22;11438;52.044;8.716;2022-12-29T14:17:21;14.30;93.20
22544;DHT22;11438;52.044;8.716;2022-12-29T14:19:51;14.30;93.00
22544;DHT22;11438;52.044;8.716;2022-12-29T14:22:25;14.30;93.20
22544;DHT22;11438;52.044;8.716;2022-12-29T14:24:51;14.30;93.40
22544;DHT22;11438;52.044;8.716;2022-12-29T14:29:47;14.30;93.40
22544;DHT22;11438;52.044;8.716;2022-12-29T14:34:55;14.30;93.30
22544;DHT22;11438;52.044;8.716;2022-12-29T14:37:28;14.30;93.10
22544;DHT22;11438;52.044;8.716;2022-12-29T14:40:22;14.30;93.20
22544;DHT22;11438;52.044;8.716;2022-12-29T14:42:54;14.30;93.60
22544;DHT22;11438;52.044;8.716;2022-12-29T14:47:50;14.30;93.90
22544;DHT22;11438;52.044;8.716;2022-12-29T14:50:24;14.30;94.20
22544;DHT22;11438;52.044;8.716;2022-12-29T14:52:55;14.20;94.30
22544;DHT22;11438;52.044;8.716;2022-12-29T14:58:15;14.20;94.50
22544;DHT22;11438;52.044;8.716;2022-12-29T15:00:42;14.10;94.60
22544;DHT22;11438;52.044;8.716;2022-12-29T15:03:18;14.10;94.60
22544;DHT22;11438;52.044;8.716;2022-12-29T15:05:56;14.10;94.70
22544;DHT22;11438;52.044;8.716;2022-12-29T15:08:25;14.10;94.60
22544;DHT22;11438;52.044;8.716;2022-12-29T15:11:18;14.10;94.60
22544;DHT22;11438;52.044;8.716;2022-12-29T15:13:41;14.10;94.50
22544;DHT22;11438;52.044;8.716;2022-12-29T15:16:31;14.10;94.50
22544;DHT22;11438;52.044;8.716;2022-12-29T15:18:58;14.00;94.30
22544;DHT22;11438;52.044;8.716;2022-12-29T15:21:34;14.10;94.20
22544;DHT22;11438;52.044;8.716;2022-12-29T15:24:00;14.00;94.00
22544;DHT22;11438;52.044;8.716;2022-12-29T15:26:41;14.00;94.00
22544;DHT22;11438;52.044;8.716;2022-12-29T15:34:41;14.00;94.20
22544;DHT22;11438;52.044;8.716;2022-12-29T15:37:08;14.00;94.20
22544;DHT22;11438;52.044;8.716;2022-12-29T15:39:34;14.00;94.10
22544;DHT22;11438;52.044;8.716;2022-12-29T15:42:05;14.10;94.00
22544;DHT22;11438;52.044;8.716;2022-12-29T15:44:38;14.00;93.90
22544;DHT22;11438;52.044;8.716;2022-12-29T15:47:28;14.10;94.00
22544;DHT22;11438;52.044;8.716;2022-12-29T15:52:31;14.10;94.00
22544;DHT22;11438;52.044;8.716;2022-12-29T15:54:58;14.10;93.70
22544;DHT22;11438;52.044;8.716;2022-12-29T15:59:50;14.10;93.90
22544;DHT22;11438;52.044;8.716;2022-12-29T16:02:16;14.10;93.90
22544;DHT22;11438;52.044;8.716;2022-12-29T16:04:43;14.00;93.80
22544;DHT22;11438;52.044;8.716;2022-12-29T16:07:23;14.00;93.90
22544;DHT22;11438;52.044;8.716;2022-12-29T16:09:54;14.00;93.80
22544;DHT22;11438;52.044;8.716;2022-12-29T16:12:22;14.00;93.60
22544;DHT22;11438;52.044;8.716;2022-12-29T16:14:54;14.00;93.80
22544;DHT22;11438;52.044;8.716;2022-12-29T16:17:26;14.00;93.80
22544;DHT22;11438;52.044;8.716;2022-12-29T16:20:15;14.00;93.90
22544;DHT22;11438;52.044;8.716;2022-12-29T16:22:42;14.00;93.70
22544;DHT22;11438;52.044;8.716;2022-12-29T16:25:28;14.00;93.60
22544;DHT22;11438;52.044;8.716;2022-12-29T16:27:54;14.00;93.80
22544;DHT22;11438;52.044;8.716;2022-12-29T16:32:49;14.00;93.60
22544;DHT22;11438;52.044;8.716;2022-12-29T16:35:21;14.00;93.80
22544;DHT22;11438;52.044;8.716;2022-12-29T16:37:49;14.00;93.60
22544;DHT22;11438;52.044;8.716;2022-12-29T16:40:31;14.00;93.90
22544;DHT22;11438;52.044;8.716;2022-12-29T16:42:59;14.00;94.00
22544;DHT22;11438;52.044;8.716;2022-12-29T16:50:44;14.00;94.00
22544;DHT22;11438;52.044;8.716;2022-12-29T16:53:36;14.00;93.80
22544;DHT22;11438;52.044;8.716;2022-12-29T16:56:08;14.00;93.80
22544;DHT22;11438;52.044;8.716;2022-12-29T16:58:34;14.00;93.80
22544;DHT22;11438;52.044;8.716;2022-12-29T17:01:03;14.00;93.80
22544;DHT22;11438;52.044;8.716;2022-12-29T17:03:38;14.00;93.70
22544;DHT22;11438;52.044;8.716;2022-12-29T17:06:05;14.00;93.80
22544;DHT22;11438;52.044;8.716;2022-12-29T17:08:39;14.00;93.90
22544;DHT22;11438;52.044;8.716;2022-12-29T17:11:18;14.00;93.60
22544;DHT22;11438;52.044;8.716;2022-12-29T17:14:03;14.00;93.50
22544;DHT22;11438;52.044;8.716;2022-12-29T17:16:29;14.00;93.70
22544;DHT22;11438;52.044;8.716;2022-12-29T17:18:55;14.00;93.70
22544;DHT22;11438;52.044;8.716;2022-12-29T17:21:20;14.00;93.60
22544;DHT22;11438;52.044;8.716;2022-12-29T17:23:46;13.90;93.60
22544;DHT22;11438;52.044;8.716;2022-12-29T17:26:11;13.90;93.60
22544;DHT22;11438;52.044;8.716;2022-12-29T17:28:37;13.90;93.60
22544;DHT22;11438;52.044;8.716;2022-12-29T17:31:04;13.90;93.50
22544;DHT22;11438;52.044;8.716;2022-12-29T17:33:36;13.90;93.20